x

Ilm2 - 5 Miles Se Of Wrightsville Beach, Nc (41038) Weather Station

5:08am - Wed 22nd Feb 2017 All times are EST. -5 hours from GMT.

  • Wind
    7mph, 11mph gusts
  • Sea Temp 56°f
  • 空気 Temp 58°f
  • Sea Pressure 1016.4mb
  • Ilm2 - 5 Miles Se Of Wrightsville Beach, Nc
  • Ilm2 - 5 Miles Se Of Wrightsville Beach, Nc

More Historic Weather Station data

Upgrade to MSW Pro to gain access to the past 30 days of data for over 8000 Wavebouys and Weather Stations around the globe.

Join Pro

Comparision Forecast

View Surf forecast
   
Wed 02/22 5:08am 7 11 mph 1016.4mb 56f 58f
4:08am 7 11 mph 1016.5mb 56f 58f
3:08am 7 9 mph 1016.7mb 56f 58f
1:08am 4 9 mph 1017.8mb 56f 58f
12:08am 4 9 mph 1018.5mb 56f 59f
Tue 02/21 11:08pm 4 11 mph 1019.1mb 56f 58f
10:08pm 9 11 mph 1019.7mb 56f 57f
9:08pm 11 16 mph 1020mb 56f 58f
8:08pm 9 16 mph 1020mb 56f 58f
7:08pm 9 16 mph 1020.2mb 56f 58f
6:08pm 11 18 mph 1020.2mb 56f 58f
5:08pm 11 18 mph 1020.2mb 56f 58f
4:08pm 9 13 mph 1020.3mb 56f 58f
3:08pm 11 18 mph 1020.7mb 56f 58f
2:08pm 11 18 mph 1021.3mb 56f 57f
1:08pm 11 18 mph 1022.1mb 56f 56f
12:08pm 11 20 mph 1023.1mb 56f 55f
11:08am 13 20 mph 1024mb 56f 55f
10:08am 13 20 mph 1024.1mb 56f 55f
9:08am 11 20 mph 1024.1mb 56f 54f
8:08am 11 20 mph 1024.1mb 56f 54f
7:08am 11 20 mph 1023.9mb 56f 55f
6:08am 11 20 mph 1023.5mb 56f 55f
5:08am 13 22 mph 1023.1mb 56f 55f
4:08am 13 25 mph 1023mb 56f 55f
3:08am 13 22 mph 1023mb 56f 56f
2:08am 11 20 mph 1023.1mb 56f 56f
1:08am 11 20 mph 1023.3mb 56f 57f
12:08am 9 16 mph 1023mb 56f 57f
Mon 02/20 11:08pm 9 16 mph 1022.8mb 56f 57f
10:08pm 9 13 mph 1022.7mb 56f 58f
9:08pm 9 13 mph 1022.7mb 56f 58f
8:08pm 9 13 mph 1022.3mb 56f 58f
7:08pm 7 11 mph 1022.1mb 56f 58f
6:08pm 7 9 mph 1022mb 56f 58f
5:08pm 9 13 mph 1021.7mb 56f 58f
4:08pm 11 13 mph 1021.2mb 56f 59f
3:08pm 7 11 mph 1021.2mb 57f 59f
2:08pm 9 11 mph 1021.3mb 57f 59f
1:08pm 7 11 mph 1021.3mb 57f 58f
11:08am 4 9 mph 1022.4mb 56f 58f
10:08am 7 11 mph 1022.2mb 56f 57f
9:08am 9 20 mph 1022.3mb 56f 57f
8:08am 9 18 mph 1021mb 56f 55f
7:08am 11 18 mph 1020.8mb 56f 55f
6:08am 11 16 mph 1020mb 56f 56f
5:08am 9 18 mph 1019.7mb 56f 56f
4:08am 11 16 mph 1018.9mb 56f 57f
3:08am 11 16 mph 1018.3mb 56f 57f
2:08am 9 11 mph 1017.7mb 56f 57f
1:08am 9 11 mph 1017.8mb 56f 57f
12:08am 7 9 mph 1017.5mb 56f 57f
Sun 02/19 11:08pm 7 9 mph 1017.6mb 56f 58f
10:08pm 7 9 mph 1017.5mb 56f 58f
9:08pm 4 7 mph 1016.9mb 56f 59f
8:08pm 4 7 mph 1016.2mb 56f 61f
7:08pm 2 4 mph 1015.6mb 56f 62f
6:08pm 4 9 mph 1014.7mb 56f 62f
5:08pm 7 11 mph 1013.9mb 57f 64f
4:08pm 9 13 mph 1013.4mb 57f 64f
3:08pm 7 11 mph 1013.3mb 57f 64f
2:08pm 7 9 mph 1013.1mb 57f 64f
1:08pm 7 9 mph 1013.2mb 56f 60f
12:08pm 4 9 mph 1014.2mb 56f 60f
11:08am 11 16 mph 1015mb 56f 58f
10:08am 9 13 mph 1015.2mb 55f 56f